Time;durP1;ratioP1;P1;durP2;ratioP2;P2;SDS_P1;SDS_P2;PMS_P1;PMS_P2;Temp;Humidity;BMP_temperature;BMP_pressure;BME280_temperature;BME280_humidity;BME280_pressure;Samples;Min_cycle;Max_cycle;Signal;HPM_P1;HPM_P2
2023/04/20 00:01:46;;;;;;;;;7.00;6.00;;;;;10.53;39.60;101779.91;5142355;27;45337;-64
2023/04/20 00:04:12;;;;;;;;;8.67;7.00;;;;;10.50;39.50;101777.28;5142592;27;45251;-64
2023/04/20 00:06:37;;;;;;;;;8.33;7.67;;;;;10.47;39.82;101774.69;5142129;27;46477;-64
2023/04/20 00:09:03;;;;;;;;;7.00;6.00;;;;;10.49;39.97;101772.94;5142279;27;45256;-64
2023/04/20 00:11:29;;;;;;;;;9.67;6.67;;;;;10.50;40.09;101777.28;5142363;27;45325;-64
2023/04/20 00:13:54;;;;;;;;;7.00;6.00;;;;;10.43;39.96;101763.31;5142265;27;45294;-64
2023/04/20 00:16:19;;;;;;;;;7.00;7.00;;;;;10.17;39.94;101716.03;5142085;27;45388;-64
2023/04/20 00:18:45;;;;;;;;;12.67;8.00;;;;;10.38;39.92;101767.72;5142175;27;45223;-64
2023/04/20 00:21:11;;;;;;;;;10.00;9.00;;;;;10.41;39.90;101776.50;5142219;27;45517;-64
2023/04/20 00:23:36;;;;;;;;;10.00;8.33;;;;;10.38;39.92;101767.72;5142469;27;45489;-64
2023/04/20 00:26:02;;;;;;;;;15.67;10.00;;;;;10.37;40.08;101780.00;5141819;27;46270;-64
2023/04/20 00:28:28;;;;;;;;;11.00;7.67;;;;;10.30;40.07;101767.72;5141730;27;45323;-64
2023/04/20 00:30:53;;;;;;;;;13.33;9.67;;;;;10.06;40.29;101724.88;5142136;27;45373;-64
2023/04/20 00:33:18;;;;;;;;;10.00;9.33;;;;;10.31;40.42;101764.22;5142175;27;45387;-64
2023/04/20 00:35:44;;;;;;;;;10.00;7.00;;;;;10.03;40.19;101724.00;5141673;27;47108;-64
2023/04/20 00:38:09;;;;;;;;;8.67;8.00;;;;;10.18;40.32;101741.47;5141655;27;45330;-64
2023/04/20 00:40:34;;;;;;;;;9.00;7.67;;;;;10.24;40.36;101759.88;5141783;27;45351;-64
2023/04/20 00:43:15;;;;;;;;;11.67;9.67;;;;;10.20;40.28;101761.63;5141631;27;45578;-64
2023/04/20 00:45:40;;;;;;;;;8.33;8.33;;;;;10.13;40.36;101754.66;5141503;27;46767;-64
2023/04/20 00:48:06;;;;;;;;;9.00;8.00;;;;;10.03;40.18;101740.66;5141531;27;45383;-64
2023/04/20 00:50:33;;;;;;;;;11.33;8.00;;;;;10.08;40.24;101762.56;5141835;27;45396;-64
2023/04/20 00:52:59;;;;;;;;;9.33;8.67;;;;;10.05;40.30;101759.06;5141483;27;45415;-64
2023/04/20 00:55:25;;;;;;;;;8.67;7.67;;;;;10.01;40.32;101759.97;5141453;27;46653;-64
2023/04/20 00:57:51;;;;;;;;;8.33;7.67;;;;;10.00;40.38;101753.81;5141349;27;45402;-64
2023/04/20 01:00:17;;;;;;;;;7.67;7.33;;;;;9.96;40.49;101741.56;5140092;27;45324;-64
2023/04/20 01:02:42;;;;;;;;;8.33;8.33;;;;;9.94;40.48;101746.81;5141732;27;45463;-64
2023/04/20 01:05:08;;;;;;;;;14.33;8.67;;;;;9.89;40.60;101745.09;5141074;27;46436;-64
2023/04/20 01:07:33;;;;;;;;;10.33;9.00;;;;;9.85;40.47;101741.59;5141358;27;45264;-64
2023/04/20 01:09:58;;;;;;;;;8.00;8.00;;;;;9.82;40.47;101746.88;5140839;27;45158;-64
2023/04/20 01:12:24;;;;;;;;;10.33;9.00;;;;;9.87;40.71;101753.00;5141438;27;45233;-64
2023/04/20 01:14:50;;;;;;;;;8.00;8.00;;;;;9.82;41.01;101743.38;5141256;27;46469;-64
2023/04/20 01:17:16;;;;;;;;;9.00;9.00;;;;;9.70;40.93;101737.28;5141091;27;45343;-64
2023/04/20 01:19:43;;;;;;;;;9.67;8.00;;;;;9.43;40.86;101688.28;5141253;27;45330;-64
2023/04/20 01:22:15;;;;;;;;;10.00;9.00;;;;;9.75;40.88;101746.03;5141134;27;45372;-64
2023/04/20 01:24:40;;;;;;;;;10.33;7.00;;;;;9.63;40.99;101725.03;5140875;27;46259;-64
2023/04/20 01:27:06;;;;;;;;;10.33;9.00;;;;;9.72;41.04;101739.91;5140910;27;45374;-64
2023/04/20 01:29:32;;;;;;;;;13.00;9.00;;;;;9.71;41.05;101732.88;5140842;27;45448;-64
2023/04/20 01:31:57;;;;;;;;;10.00;7.33;;;;;9.61;40.94;101723.28;5141105;27;45302;-64
2023/04/20 01:34:23;;;;;;;;;13.67;9.67;;;;;9.57;41.08;101722.44;5140887;27;45441;-64
2023/04/20 01:36:48;;;;;;;;;14.33;9.67;;;;;9.62;41.03;101732.94;5140858;27;45363;-64
2023/04/20 01:39:16;;;;;;;;;17.00;13.33;;;;;9.54;41.10;101722.41;5141109;27;45467;-64
2023/04/20 01:41:41;;;;;;;;;13.00;10.67;;;;;9.51;41.34;101732.94;5140943;27;45442;-64
2023/04/20 01:44:06;;;;;;;;;16.00;12.67;;;;;9.51;41.36;101733.84;5140251;27;45540;-64
2023/04/20 01:46:32;;;;;;;;;11.33;11.33;;;;;9.07;41.40;101664.69;5140853;27;45479;-64
2023/04/20 01:48:57;;;;;;;;;16.00;10.67;;;;;9.46;41.66;101722.44;5140744;27;45239;-64
2023/04/20 01:51:22;;;;;;;;;13.33;10.67;;;;;9.38;41.66;101714.59;5141031;27;45276;-64
2023/04/20 01:53:48;;;;;;;;;11.00;8.67;;;;;9.33;41.22;101702.31;5140504;27;46463;-64
2023/04/20 01:56:13;;;;;;;;;13.67;10.33;;;;;9.33;41.57;101711.06;5140628;27;45365;-64
2023/04/20 01:58:38;;;;;;;;;7.67;7.00;;;;;9.35;41.35;101719.84;5140596;27;45489;-64
2023/04/20 02:01:04;;;;;;;;;12.00;10.00;;;;;9.33;41.85;101728.59;5140632;27;45444;-64
2023/04/20 02:03:29;;;;;;;;;11.00;9.33;;;;;9.21;41.33;101714.59;5140340;27;46528;-64
2023/04/20 02:05:55;;;;;;;;;8.00;6.00;;;;;9.18;41.50;101701.47;5130533;27;45409;-64
2023/04/20 02:08:21;;;;;;;;;8.33;8.33;;;;;9.32;41.40;101722.47;5131062;27;46229;-64
2023/04/20 02:10:46;;;;;;;;;15.67;10.00;;;;;9.20;41.79;101707.59;5119683;27;45240;-64
2023/04/20 02:13:11;;;;;;;;;15.00;13.67;;;;;9.21;41.80;101724.25;5118695;27;45467;-64
2023/04/20 02:15:37;;;;;;;;;10.67;8.33;;;;;9.21;41.68;101719.00;5119375;27;45290;-64
2023/04/20 02:18:02;;;;;;;;;7.33;5.33;;;;;9.18;41.59;101727.75;5119458;27;45436;-64
2023/04/20 02:20:28;;;;;;;;;11.00;10.67;;;;;9.16;41.91;101713.72;5119521;27;45325;-64
2023/04/20 02:22:53;;;;;;;;;9.67;9.33;;;;;9.11;41.99;101723.38;5119242;27;45955;-64
2023/04/20 02:25:19;;;;;;;;;13.00;10.67;;;;;9.13;41.58;101731.25;5119205;27;45413;-63
2023/04/20 02:27:45;;;;;;;;;10.33;8.33;;;;;9.06;41.96;101730.38;5119484;27;45341;-64
2023/04/20 02:30:11;;;;;;;;;11.00;8.33;;;;;9.06;41.76;101731.28;5117857;27;45291;-64
2023/04/20 02:32:36;;;;;;;;;5.33;5.33;;;;;9.03;41.72;101725.13;5119274;27;47359;-64
2023/04/20 02:35:03;;;;;;;;;8.33;8.33;;;;;9.02;41.78;101724.25;5119032;27;45358;-64
2023/04/20 02:37:28;;;;;;;;;12.67;9.67;;;;;8.93;42.06;101715.50;5119063;27;45199;-64
2023/04/20 02:39:54;;;;;;;;;7.00;7.00;;;;;8.93;42.19;101732.16;5119316;27;45530;-64
2023/04/20 02:42:19;;;;;;;;;12.67;11.00;;;;;8.89;42.05;101727.78;5118391;27;47025;-64
2023/04/20 02:44:45;;;;;;;;;6.33;4.00;;;;;8.87;41.98;101726.88;5118997;27;45253;-64
2023/04/20 02:47:10;;;;;;;;;14.00;11.00;;;;;8.61;42.03;101679.63;5119124;27;45243;-64
2023/04/20 02:49:35;;;;;;;;;13.00;10.00;;;;;8.81;41.83;101721.63;5119135;27;45388;-64
2023/04/20 02:52:01;;;;;;;;;14.33;7.67;;;;;8.85;42.03;101721.63;5118194;27;45435;-64
2023/04/20 02:54:26;;;;;;;;;11.33;7.67;;;;;8.77;41.77;101718.16;5118693;27;45371;-64
2023/04/20 02:56:52;;;;;;;;;11.33;10.00;;;;;8.69;42.06;101696.25;5119109;27;45804;-64
2023/04/20 02:59:17;;;;;;;;;12.00;8.67;;;;;8.56;42.30;101679.63;5118692;27;45412;-64
2023/04/20 03:01:42;;;;;;;;;12.00;11.67;;;;;8.71;42.13;101716.41;5118614;27;45430;-64
2023/04/20 03:04:08;;;;;;;;;10.67;6.00;;;;;8.70;42.27;101721.66;5118749;27;45239;-64
2023/04/20 03:06:35;;;;;;;;;6.33;6.33;;;;;8.45;41.65;101687.50;5118811;27;45419;-64
2023/04/20 03:09:00;;;;;;;;;11.00;9.00;;;;;8.66;42.22;101726.00;5119006;27;45300;-64
2023/04/20 03:11:26;;;;;;;;;13.33;11.67;;;;;8.65;42.03;101726.88;5118453;27;45949;-64
2023/04/20 03:13:51;;;;;;;;;8.67;8.33;;;;;8.63;41.87;101722.50;5118577;27;45373;-64
2023/04/20 03:16:17;;;;;;;;;12.67;10.00;;;;;8.57;41.96;101719.84;5118765;27;45372;-64
2023/04/20 03:18:42;;;;;;;;;8.33;8.33;;;;;8.58;41.91;101724.25;5118740;27;45452;-64
2023/04/20 03:21:07;;;;;;;;;12.67;9.33;;;;;8.61;41.97;101738.25;5118468;27;46476;-64
2023/04/20 03:23:33;;;;;;;;;10.33;7.00;;;;;8.54;41.90;101712.88;5118751;27;45294;-64
2023/04/20 03:25:58;;;;;;;;;10.33;10.00;;;;;8.59;41.77;101719.00;5122288;27;45440;-64
2023/04/20 03:28:23;;;;;;;;;11.00;10.67;;;;;8.54;41.97;101728.63;5122358;27;45235;-64
2023/04/20 03:30:49;;;;;;;;;10.33;9.33;;;;;8.56;41.90;101732.13;5121823;27;45402;-64
2023/04/20 03:33:14;;;;;;;;;11.67;11.67;;;;;8.43;41.94;101709.31;5122088;27;45337;-64
2023/04/20 03:35:41;;;;;;;;;4.33;2.33;;;;;8.46;41.99;101714.59;5122106;27;45310;-64
2023/04/20 03:38:07;;;;;;;;;13.33;11.33;;;;;8.42;41.89;101705.78;5122057;27;45409;-64
2023/04/20 03:40:32;;;;;;;;;10.33;7.33;;;;;8.49;41.89;101715.47;5121633;27;46184;-64
2023/04/20 03:42:57;;;;;;;;;11.67;11.00;;;;;8.43;41.65;101711.94;5121617;27;45449;-64
2023/04/20 03:45:23;;;;;;;;;11.00;9.33;;;;;8.16;41.72;101664.66;5121925;27;45687;-64
2023/04/20 03:47:48;;;;;;;;;12.00;10.00;;;;;8.46;41.62;101722.47;5122048;27;45498;-64
2023/04/20 03:50:13;;;;;;;;;12.00;9.33;;;;;8.44;41.85;101713.72;5121542;27;46044;-64
2023/04/20 03:52:39;;;;;;;;;9.33;8.00;;;;;8.42;41.89;101716.28;5121922;27;45417;-64
2023/04/20 03:55:05;;;;;;;;;11.33;10.00;;;;;8.44;41.64;101716.34;5121783;27;45456;-64
2023/04/20 03:57:32;;;;;;;;;10.00;10.00;;;;;8.41;41.50;101718.91;5121995;27;45332;-64
2023/04/20 03:59:58;;;;;;;;;10.00;9.00;;;;;8.21;41.64;101692.66;5121239;27;46663;-64
2023/04/20 04:02:23;;;;;;;;;11.67;9.33;;;;;8.27;41.78;101703.16;5121420;27;45214;-64
2023/04/20 04:04:49;;;;;;;;;7.00;7.00;;;;;8.37;41.57;101726.78;5121629;27;45286;-64
2023/04/20 04:07:14;;;;;;;;;15.00;9.33;;;;;8.32;41.58;101718.06;5121696;27;45338;-64
2023/04/20 04:09:39;;;;;;;;;12.67;7.00;;;;;8.30;41.52;101716.28;5121473;27;45400;-64
2023/04/20 04:12:05;;;;;;;;;12.00;10.00;;;;;8.25;41.75;101708.41;5121335;27;45383;-64
2023/04/20 04:14:31;;;;;;;;;13.67;10.00;;;;;8.27;41.51;101711.03;5121456;27;45414;-64
2023/04/20 04:16:56;;;;;;;;;7.33;7.33;;;;;8.24;41.65;101704.03;5121643;27;45503;-64
2023/04/20 04:19:22;;;;;;;;;10.33;7.67;;;;;8.16;41.76;101692.63;5121209;27;45509;-64
2023/04/20 04:21:47;;;;;;;;;10.33;9.00;;;;;8.16;41.25;101698.78;5121197;27;45318;-64
2023/04/20 04:24:13;;;;;;;;;13.67;10.33;;;;;8.15;41.71;101683.91;5121360;27;45433;-64
2023/04/20 04:26:38;;;;;;;;;10.67;9.33;;;;;8.24;41.65;101701.41;5121385;27;45684;-64
2023/04/20 04:29:03;;;;;;;;;12.00;8.33;;;;;8.27;41.80;101701.41;5121173;27;46600;-64
2023/04/20 04:31:31;;;;;;;;;9.67;9.67;;;;;8.02;41.69;101658.50;5121038;27;45876;-64
2023/04/20 04:33:57;;;;;;;;;12.33;12.33;;;;;8.21;41.53;101695.28;5121242;27;45342;-64
2023/04/20 04:36:23;;;;;;;;;13.33;11.33;;;;;8.24;41.69;101704.03;5120941;27;45418;-64
2023/04/20 04:38:48;;;;;;;;;11.33;11.33;;;;;8.25;41.81;101702.25;5120864;27;45551;-64
2023/04/20 04:41:14;;;;;;;;;10.33;10.33;;;;;8.18;42.07;101690.91;5120772;27;45244;-64
2023/04/20 04:43:39;;;;;;;;;10.00;9.67;;;;;8.25;41.75;101695.28;5120859;27;45318;-64
2023/04/20 04:46:09;;;;;;;;;11.67;10.00;;;;;8.25;41.87;101694.41;5121054;27;45160;-64
2023/04/20 04:48:34;;;;;;;;;10.33;10.33;;;;;8.25;41.65;101694.41;5120811;27;45418;-64
2023/04/20 04:51:00;;;;;;;;;13.00;10.00;;;;;8.16;41.90;101683.03;5120622;27;45292;-64
2023/04/20 04:53:25;;;;;;;;;11.00;10.00;;;;;8.18;41.85;101675.16;5121049;27;45264;-64
2023/04/20 04:55:51;;;;;;;;;8.67;8.33;;;;;8.25;42.35;101679.56;5121047;27;45862;-64
2023/04/20 04:58:16;;;;;;;;;11.00;10.67;;;;;8.28;42.19;101691.81;5120565;27;46441;-64
2023/04/20 05:00:41;;;;;;;;;11.00;10.00;;;;;8.28;42.55;101683.94;5120446;27;45329;-64
2023/04/20 05:03:07;;;;;;;;;15.67;13.00;;;;;8.32;42.38;101681.31;5120710;27;45351;-64
2023/04/20 05:05:32;;;;;;;;;17.33;12.33;;;;;8.33;42.88;101680.41;5120875;27;45430;-64
2023/04/20 05:07:57;;;;;;;;;16.00;12.33;;;;;8.24;43.13;101669.91;5120371;27;45338;-64
2023/04/20 05:10:23;;;;;;;;;14.00;10.33;;;;;8.26;43.39;101675.16;5120640;27;45321;-64
2023/04/20 05:12:48;;;;;;;;;14.33;10.00;;;;;8.36;43.48;101683.06;5120625;27;45395;-64
2023/04/20 05:15:13;;;;;;;;;18.67;14.33;;;;;8.36;43.54;101685.69;5120634;27;45223;-64
2023/04/20 05:17:39;;;;;;;;;17.00;15.00;;;;;8.29;43.67;101657.69;5120350;27;46271;-64
2023/04/20 05:20:06;;;;;;;;;19.33;17.67;;;;;8.47;43.76;101684.88;5120293;27;45193;-64
2023/04/20 05:22:31;;;;;;;;;19.00;16.67;;;;;8.49;43.86;101662.13;5120326;27;45346;-64
2023/04/20 05:24:57;;;;;;;;;24.67;18.67;;;;;8.66;43.92;101668.25;5120574;27;45445;-64
2023/04/20 05:27:22;;;;;;;;;18.33;15.33;;;;;8.70;43.94;101662.13;5120063;27;46104;-64
2023/04/20 05:29:47;;;;;;;;;21.67;20.00;;;;;8.61;43.81;101648.13;5120160;27;45336;-64
2023/04/20 05:32:13;;;;;;;;;21.67;18.67;;;;;8.73;43.84;101681.34;5120027;27;45394;-64
2023/04/20 05:34:38;;;;;;;;;19.67;19.67;;;;;8.72;44.03;101680.50;5120492;27;45288;-64
2023/04/20 05:37:04;;;;;;;;;18.33;17.00;;;;;8.61;44.08;101663.88;5119877;27;45428;-64
2023/04/20 05:39:30;;;;;;;;;22.67;20.00;;;;;8.67;44.13;101672.63;5119988;27;45348;-64
2023/04/20 05:41:55;;;;;;;;;17.67;16.33;;;;;8.68;44.03;101679.63;5119791;27;45540;-64
2023/04/20 05:44:21;;;;;;;;;13.00;13.00;;;;;8.98;43.91;101672.59;5119886;27;45517;-64
2023/04/20 05:46:46;;;;;;;;;13.33;12.00;;;;;9.57;43.01;101677.72;5118958;27;46551;-64
2023/04/20 05:49:11;;;;;;;;;20.00;14.00;;;;;10.29;41.84;101677.34;5119833;27;45350;-64
2023/04/20 05:51:37;;;;;;;;;16.67;13.33;;;;;10.36;41.46;101669.47;5119828;27;45426;-64
2023/04/20 05:54:02;;;;;;;;;14.33;13.00;;;;;10.22;41.37;101672.13;5119946;27;45323;-64
2023/04/20 05:56:28;;;;;;;;;16.33;12.67;;;;;9.83;41.69;101646.06;5119598;27;46585;-64
2023/04/20 05:58:55;;;;;;;;;20.00;16.00;;;;;9.70;41.86;101665.38;5119866;27;45282;-64
2023/04/20 06:01:20;;;;;;;;;14.67;14.67;;;;;9.65;42.43;101675.06;5119656;27;45293;-64
2023/04/20 06:03:47;;;;;;;;;12.33;12.33;;;;;9.52;42.77;101663.72;5119813;27;45580;-65
2023/04/20 06:06:13;;;;;;;;;14.00;12.67;;;;;9.52;42.57;101664.59;5119398;27;46534;-65
2023/04/20 06:08:39;;;;;;;;;12.67;12.67;;;;;9.48;42.64;101668.09;5119326;27;45256;-65
2023/04/20 06:11:04;;;;;;;;;13.00;12.00;;;;;9.35;42.70;101648.88;5119915;27;45341;-65
2023/04/20 06:13:29;;;;;;;;;14.67;13.00;;;;;9.41;42.88;101662.00;5119728;27;45358;-65
2023/04/20 06:15:55;;;;;;;;;17.33;14.33;;;;;9.36;43.27;101642.72;5119169;27;46157;-65
2023/04/20 06:18:20;;;;;;;;;13.00;12.00;;;;;9.47;42.99;101650.59;5119375;27;45455;-65
2023/04/20 06:20:45;;;;;;;;;11.33;9.33;;;;;9.53;43.21;101647.06;5119352;27;45245;-65
2023/04/20 06:23:11;;;;;;;;;19.00;11.67;;;;;9.52;43.48;101629.53;5119594;27;45414;-65
2023/04/20 06:25:37;;;;;;;;;12.00;12.00;;;;;9.60;43.17;101638.28;5119211;27;46329;-65
2023/04/20 06:28:03;;;;;;;;;14.00;13.00;;;;;9.62;43.38;101638.28;5119229;27;45425;-65
2023/04/20 06:30:32;;;;;;;;;15.00;13.00;;;;;9.63;43.71;101626.84;5119191;27;45430;-65
2023/04/20 06:32:57;;;;;;;;;16.67;13.00;;;;;9.66;43.39;101618.97;5119320;27;45477;-65
2023/04/20 06:35:23;;;;;;;;;19.33;14.67;;;;;9.75;43.87;101622.41;5118913;27;47250;-65
2023/04/20 06:37:49;;;;;;;;;18.33;14.33;;;;;9.81;43.86;101633.78;5119070;27;45472;-65
2023/04/20 06:40:14;;;;;;;;;19.67;15.33;;;;;9.79;43.67;101614.50;5119077;27;45435;-64
2023/04/20 06:42:40;;;;;;;;;15.33;11.00;;;;;9.77;43.76;101617.13;5118899;27;45569;-65
2023/04/20 06:45:06;;;;;;;;;17.33;15.33;;;;;9.84;43.87;101626.75;5118855;27;46401;-65
2023/04/20 06:47:32;;;;;;;;;15.67;12.67;;;;;9.92;43.89;101630.22;5118849;27;45457;-65
2023/04/20 06:49:58;;;;;;;;;16.00;10.00;;;;;9.99;43.92;101617.00;5119024;27;45291;-65
2023/04/20 06:52:24;;;;;;;;;16.00;11.67;;;;;10.10;43.81;101616.06;5119151;27;45350;-65
2023/04/20 06:54:49;;;;;;;;;11.67;11.33;;;;;10.18;43.73;101621.28;5118796;27;46149;-65
2023/04/20 06:57:15;;;;;;;;;13.33;11.00;;;;;10.21;44.01;101613.38;5118724;27;45362;-65
2023/04/20 06:59:40;;;;;;;;;15.33;13.67;;;;;10.22;44.17;101598.44;5118732;27;45318;-65
2023/04/20 07:02:06;;;;;;;;;12.67;12.67;;;;;10.35;43.98;101607.16;5118831;27;45604;-65
2023/04/20 07:04:31;;;;;;;;;15.00;10.33;;;;;10.43;43.86;101611.47;5118605;27;45412;-65
2023/04/20 07:06:56;;;;;;;;;17.67;13.00;;;;;10.44;44.30;101602.69;5118653;27;45293;-65
2023/04/20 07:09:22;;;;;;;;;13.67;13.67;;;;;10.52;44.10;101596.50;5118832;27;45244;-65
2023/04/20 07:11:47;;;;;;;;;17.67;10.33;;;;;10.58;44.04;101585.91;5118913;27;45235;-65
2023/04/20 07:14:13;;;;;;;;;17.33;12.67;;;;;10.74;43.98;101602.44;5118505;27;45882;-65
2023/04/20 07:16:38;;;;;;;;;15.00;11.00;;;;;10.80;44.17;101594.44;5118058;27;45481;-65
2023/04/20 07:19:04;;;;;;;;;18.00;15.00;;;;;10.70;44.12;101577.84;5118741;27;45483;-65
2023/04/20 07:21:30;;;;;;;;;10.00;8.00;;;;;10.72;43.93;101560.28;5118728;27;45383;-65
2023/04/20 07:23:57;;;;;;;;;13.00;10.67;;;;;10.98;43.82;101590.78;5118376;27;46488;-65
2023/04/20 07:26:26;;;;;;;;;13.00;11.00;;;;;11.01;44.04;101588.09;5118313;27;45350;-65
2023/04/20 07:28:51;;;;;;;;;11.00;9.33;;;;;11.02;43.83;101579.28;5117964;27;45478;-65
2023/04/20 07:31:17;;;;;;;;;13.33;10.33;;;;;11.13;43.83;101587.94;5118435;27;45299;-65
2023/04/20 07:33:42;;;;;;;;;18.67;11.00;;;;;11.19;44.05;101580.88;5118318;27;45403;-65
2023/04/20 07:36:08;;;;;;;;;15.00;10.67;;;;;11.21;43.51;101566.78;5118309;27;45458;-65
2023/04/20 07:38:33;;;;;;;;;13.67;10.00;;;;;11.37;43.23;101572.75;5118496;27;45342;-65
2023/04/20 07:40:59;;;;;;;;;10.67;9.67;;;;;11.39;43.57;101572.72;5118137;27;45244;-65
2023/04/20 07:43:24;;;;;;;;;9.67;8.00;;;;;11.29;43.63;101558.78;5118088;27;46318;-65
2023/04/20 07:45:50;;;;;;;;;10.00;9.33;;;;;11.38;43.34;101560.41;5118009;27;45328;-65
2023/04/20 07:48:15;;;;;;;;;15.00;14.67;;;;;11.29;43.59;101553.50;5118230;27;45358;-65
2023/04/20 07:50:40;;;;;;;;;8.33;8.33;;;;;11.40;43.40;101553.34;5118497;27;45302;-65
2023/04/20 07:53:06;;;;;;;;;8.33;7.67;;;;;11.33;43.37;101547.31;5117923;27;47110;-65
2023/04/20 07:55:31;;;;;;;;;13.33;10.00;;;;;11.35;43.59;101565.75;5117958;27;45402;-65
2023/04/20 07:57:56;;;;;;;;;8.67;8.67;;;;;11.33;43.51;101560.50;5118203;27;45455;-65
2023/04/20 08:00:23;;;;;;;;;9.67;8.00;;;;;11.29;43.72;101550.88;5118599;27;45308;-65
2023/04/20 08:02:48;;;;;;;;;9.67;9.67;;;;;11.28;43.83;101538.56;5117315;27;46598;-65
2023/04/20 08:05:13;;;;;;;;;11.00;8.00;;;;;11.27;43.93;101528.91;5117760;27;45315;-65
2023/04/20 08:07:39;;;;;;;;;12.33;10.00;;;;;11.40;44.15;101546.34;5118028;27;45641;-65
2023/04/20 08:10:06;;;;;;;;;12.67;9.67;;;;;11.36;44.09;101520.03;5119189;27;45401;-65
2023/04/20 08:12:32;;;;;;;;;11.00;8.33;;;;;11.53;43.64;101533.84;5121500;27;46751;-65
2023/04/20 08:15:03;;;;;;;;;16.67;10.33;;;;;11.53;43.83;101532.97;5121233;27;45248;-65
2023/04/20 08:17:28;;;;;;;;;8.33;8.33;;;;;11.51;44.25;101530.34;5121193;27;45363;-65
2023/04/20 08:19:54;;;;;;;;;5.00;5.00;;;;;11.55;44.35;101536.47;5121818;27;45208;-65
2023/04/20 08:22:19;;;;;;;;;9.33;8.00;;;;;11.58;44.33;101520.59;5121127;27;45451;-65
2023/04/20 08:24:45;;;;;;;;;11.00;8.00;;;;;11.63;44.37;101524.03;5121051;27;45512;-65
2023/04/20 08:27:11;;;;;;;;;6.67;6.67;;;;;11.53;44.48;101506.59;5121327;27;45297;-64
2023/04/20 08:29:37;;;;;;;;;9.33;8.00;;;;;11.66;45.22;101524.88;5121227;27;45249;-63
2023/04/20 08:32:03;;;;;;;;;11.67;10.33;;;;;11.65;45.58;101517.84;5120834;27;46406;-64
2023/04/20 08:34:28;;;;;;;;;9.67;8.00;;;;;11.61;45.58;101520.53;5120954;27;45311;-64
2023/04/20 08:36:54;;;;;;;;;6.00;5.00;;;;;11.59;46.06;101517.94;5121130;27;45434;-64
2023/04/20 08:39:22;;;;;;;;;11.00;9.00;;;;;11.68;46.43;101523.06;5121285;27;45376;-65
2023/04/20 08:41:52;;;;;;;;;6.67;6.67;;;;;11.64;46.14;101507.31;5120628;27;46146;-65
2023/04/20 08:44:17;;;;;;;;;10.00;9.00;;;;;11.64;46.47;101504.66;5120754;27;45426;-64
2023/04/20 08:46:46;;;;;;;;;8.33;7.00;;;;;11.63;46.46;101508.19;5120822;27;45374;-65
2023/04/20 08:49:13;;;;;;;;;10.67;8.00;;;;;11.64;46.09;101523.13;5121043;27;45473;-65
2023/04/20 08:51:39;;;;;;;;;10.33;8.00;;;;;11.48;46.68;101512.78;5120673;27;46511;-65
2023/04/20 08:54:05;;;;;;;;;6.00;6.00;;;;;11.47;47.45;101521.63;5120562;27;45253;-64
2023/04/20 08:56:36;;;;;;;;;7.00;7.00;;;;;11.37;46.78;101524.38;5120678;27;45446;-64
2023/04/20 08:59:04;;;;;;;;;9.33;6.33;;;;;11.35;47.25;101505.97;5121065;27;45470;-64
2023/04/20 09:01:34;;;;;;;;;9.67;7.00;;;;;11.43;46.75;101509.38;5119906;27;45669;-64
2023/04/20 09:03:59;;;;;;;;;7.00;7.00;;;;;11.40;47.05;101500.59;5120524;27;45391;-64
2023/04/20 09:06:25;;;;;;;;;8.67;7.00;;;;;11.41;46.67;101487.41;5120540;27;45355;-64
2023/04/20 09:08:51;;;;;;;;;9.33;8.00;;;;;11.47;46.84;101503.16;5120788;27;45394;-64
2023/04/20 09:11:24;;;;;;;;;7.67;7.67;;;;;11.44;47.08;101497.94;5120627;27;45463;-64
2023/04/20 09:13:58;;;;;;;;;9.33;7.00;;;;;11.49;47.34;101492.59;5120405;27;45450;-64
2023/04/20 09:16:24;;;;;;;;;21.00;15.33;;;;;11.45;47.83;101475.06;5120473;27;45406;-65
2023/04/20 09:18:52;;;;;;;;;9.00;9.00;;;;;11.44;47.50;101458.38;5120511;27;45446;-64
2023/04/20 09:21:17;;;;;;;;;9.00;8.00;;;;;11.58;47.42;101481.03;5119197;27;45676;-64
2023/04/20 09:23:42;;;;;;;;;7.00;6.00;;;;;11.26;47.15;101430.50;5119966;27;45434;-64
2023/04/20 09:26:17;;;;;;;;;18.00;12.00;;;;;11.44;47.66;101468.94;5120380;27;45308;-64
2023/04/20 09:28:42;;;;;;;;;15.00;14.67;;;;;11.47;47.41;101471.50;5120477;27;45343;-64
2023/04/20 09:31:17;;;;;;;;;17.33;15.67;;;;;11.38;47.80;101470.78;5120094;27;45560;-64
2023/04/20 09:33:43;;;;;;;;;15.67;14.33;;;;;11.38;48.04;101468.13;5120131;27;45472;-64
2023/04/20 09:36:09;;;;;;;;;16.00;14.33;;;;;11.36;48.47;101470.78;5120300;27;45804;-64
2023/04/20 09:38:35;;;;;;;;;12.67;12.33;;;;;11.31;47.89;101455.03;5120330;27;45324;-64
2023/04/20 09:41:01;;;;;;;;;16.00;13.00;;;;;11.31;47.99;101449.78;5120026;27;47456;-65
2023/04/20 09:43:29;;;;;;;;;16.67;13.00;;;;;11.39;48.65;101462.84;5140598;27;45363;-65
2023/04/20 09:45:57;;;;;;;;;18.67;15.00;;;;;11.28;48.17;101446.28;5134648;27;45520;-65
2023/04/20 09:48:23;;;;;;;;;14.00;13.33;;;;;11.39;48.65;101465.47;5135367;27;45389;-65
2023/04/20 09:50:48;;;;;;;;;17.67;14.00;;;;;11.32;48.70;101462.03;5128412;27;45379;-65
2023/04/20 09:53:16;;;;;;;;;18.33;15.00;;;;;11.27;49.00;101463.00;5138871;27;45353;-65
2023/04/20 09:55:47;;;;;;;;;11.33;11.00;;;;;11.19;48.63;101459.63;5123891;27;45485;-65
2023/04/20 09:58:12;;;;;;;;;17.00;15.00;;;;;11.10;49.07;101444.81;5119885;27;45461;-65
2023/04/20 10:00:38;;;;;;;;;13.33;11.33;;;;;11.13;48.97;101457.94;5134996;27;46895;-65
2023/04/20 10:03:03;;;;;;;;;21.00;14.33;;;;;11.10;48.91;101448.28;5140067;27;45328;-65
2023/04/20 10:05:34;;;;;;;;;15.00;12.67;;;;;11.05;48.75;101426.41;5140335;27;45493;-65
2023/04/20 10:08:00;;;;;;;;;18.00;14.67;;;;;11.29;48.80;101437.50;5139839;27;45598;-65
2023/04/20 10:10:26;;;;;;;;;16.00;14.00;;;;;11.38;48.91;101429.44;5139310;27;46137;-64
2023/04/20 10:12:53;;;;;;;;;19.00;15.00;;;;;11.58;48.45;101420.38;5140135;27;45334;-64
2023/04/20 10:15:20;;;;;;;;;18.33;16.00;;;;;11.68;47.10;101420.19;5140154;27;45505;-64
2023/04/20 10:17:46;;;;;;;;;13.67;12.33;;;;;11.88;47.37;101434.81;5139864;27;45442;-64
2023/04/20 10:20:26;;;;;;;;;17.67;15.67;;;;;11.90;46.86;101427.72;5140170;27;46247;-64
2023/04/20 10:22:52;;;;;;;;;13.33;12.00;;;;;11.89;47.03;101419.84;5139535;27;45394;-64
2023/04/20 10:25:20;;;;;;;;;14.67;14.67;;;;;11.96;46.73;101426.78;5139677;27;45437;-64
2023/04/20 10:27:57;;;;;;;;;14.00;12.00;;;;;11.89;46.41;101414.56;5140267;27;45450;-64
2023/04/20 10:30:23;;;;;;;;;26.00;21.67;;;;;11.97;46.17;101423.25;5139275;27;47086;-64
2023/04/20 10:32:49;;;;;;;;;17.67;14.00;;;;;11.90;46.40;101417.19;5138861;27;45909;-64
2023/04/20 10:35:15;;;;;;;;;13.33;13.00;;;;;11.79;46.85;101419.13;5121338;27;45457;-63
2023/04/20 10:37:49;;;;;;;;;14.33;11.67;;;;;11.74;46.86;101416.56;5139889;27;45296;-62
2023/04/20 10:40:15;;;;;;;;;18.00;14.00;;;;;11.62;47.08;101391.28;5139457;27;47512;-62
2023/04/20 10:42:42;;;;;;;;;16.33;14.00;;;;;11.65;47.08;101403.53;5139111;27;45386;-62
2023/04/20 10:45:09;;;;;;;;;19.00;15.00;;;;;11.63;47.03;101406.22;5139541;27;45449;-61
2023/04/20 10:47:36;;;;;;;;;14.67;14.67;;;;;11.54;47.16;101381.75;5139358;27;45449;-63
2023/04/20 10:50:15;;;;;;;;;19.33;17.00;;;;;11.50;47.33;101387.06;5139291;27;46369;-62
2023/04/20 10:52:42;;;;;;;;;15.33;12.67;;;;;11.46;47.71;101384.53;5139361;27;45350;-62
2023/04/20 10:55:22;;;;;;;;;17.33;14.33;;;;;11.42;47.53;101394.22;5139387;27;45492;-62
2023/04/20 10:57:49;;;;;;;;;15.00;13.00;;;;;11.30;47.84;101389.16;5139466;27;45311;-62
2023/04/20 11:00:19;;;;;;;;;14.67;14.67;;;;;11.22;48.10;101383.13;5139203;27;46408;-62
2023/04/20 11:02:57;;;;;;;;;15.67;13.67;;;;;11.19;48.18;101377.91;5138978;27;45410;-63
2023/04/20 11:05:26;;;;;;;;;11.00;11.00;;;;;11.22;48.36;101386.63;5139130;27;45787;-63
2023/04/20 11:07:58;;;;;;;;;15.00;14.67;;;;;11.22;48.22;101389.25;5137758;27;45809;-62
2023/04/20 11:10:40;;;;;;;;;19.00;16.33;;;;;11.19;48.64;101384.03;5138894;27;46188;-62
2023/04/20 11:13:07;;;;;;;;;16.33;15.00;;;;;11.18;48.40;101373.53;5126735;27;45174;-61
2023/04/20 11:15:33;;;;;;;;;18.00;16.33;;;;;10.97;48.36;101328.16;5134689;27;45207;-61